Terminal Aerodrome Forecast
Issued by NWS

Current Version | Previous Version | Text Only | Print | Product List | Glossary On
Versions: 1 2 3 4 5 6 7 8 9 10 11 12 13
000
FTUS45 KGGW 121126
TAFSDY
TAF
KSDY 121126Z 1212/1312 21005KT P6SM SKC
     FM121400 23007KT P6SM SCT130
     FM122000 26014KT P6SM FEW160
     FM130300 30019G28KT P6SM BKN160
     FM130900 31019G27KT P6SM FEW080=

USA.gov is the U.S. government's official web portal to all federal, state and local government web resources and services.